createdAt,value
2022-08-10T00:01:54.558Z,2.90
2022-08-10T00:04:25.265Z,2.90
2022-08-10T00:06:55.608Z,2.60
2022-08-10T00:09:26.048Z,2.50
2022-08-10T00:11:55.388Z,2.60
2022-08-10T00:14:24.470Z,2.50
2022-08-10T00:16:53.765Z,2.70
2022-08-10T00:19:23.137Z,2.40
2022-08-10T00:21:52.221Z,2.50
2022-08-10T00:24:21.553Z,2.80
2022-08-10T00:27:57.817Z,2.20
2022-08-10T00:29:40.687Z,2.50
2022-08-10T00:32:10.452Z,2.70
2022-08-10T00:34:39.510Z,2.70
2022-08-10T00:37:09.182Z,2.40
2022-08-10T00:39:39.420Z,2.50
2022-08-10T00:42:10.468Z,2.70
2022-08-10T00:44:41.664Z,3.00
2022-08-10T00:47:36.452Z,2.60
2022-08-10T00:50:02.267Z,2.10
2022-08-10T00:52:33.769Z,2.60
2022-08-10T00:55:04.541Z,2.50
2022-08-10T01:00:42.608Z,2.30
2022-08-10T01:03:12.291Z,2.40
2022-08-10T01:05:52.007Z,2.30
2022-08-10T01:08:32.135Z,2.40
2022-08-10T01:12:37.657Z,2.20
2022-08-10T01:14:07.510Z,2.40
2022-08-10T01:16:53.263Z,2.40
2022-08-10T01:19:41.168Z,2.10
2022-08-10T01:22:29.168Z,2.40
2022-08-10T01:26:10.551Z,2.20
2022-08-10T01:28:42.303Z,2.50
2022-08-10T01:31:16.435Z,2.40
2022-08-10T01:33:58.921Z,2.40
2022-08-10T01:36:35.365Z,2.10
2022-08-10T01:39:06.726Z,2.50
2022-08-10T01:41:46.628Z,2.20
2022-08-10T01:44:20.352Z,1.90
2022-08-10T01:46:56.674Z,2.30
2022-08-10T01:49:28.553Z,2.10
2022-08-10T01:52:01.143Z,2.00
2022-08-10T01:54:32.236Z,2.10
2022-08-10T01:57:04.105Z,2.30
2022-08-10T01:59:36.506Z,2.10
2022-08-10T02:02:15.186Z,2.00
2022-08-10T02:04:50.581Z,1.90
2022-08-10T02:07:31.675Z,2.10
2022-08-10T02:10:09.702Z,1.80
2022-08-10T02:12:43.350Z,1.80
2022-08-10T02:15:16.767Z,1.90
2022-08-10T02:17:57.454Z,1.60
2022-08-10T02:20:34.621Z,1.60
2022-08-10T02:23:08.610Z,1.60
2022-08-10T02:25:43.866Z,1.70
2022-08-10T02:28:29.748Z,1.60
2022-08-10T02:31:06.410Z,1.50
2022-08-10T02:33:38.136Z,1.50
2022-08-10T02:36:11.798Z,1.40
2022-08-10T02:38:59.117Z,1.70
2022-08-10T02:45:12.566Z,1.30
2022-08-10T02:45:22.065Z,1.50
2022-08-10T02:47:50.884Z,1.50
2022-08-10T02:50:27.392Z,1.50
2022-08-10T02:53:01.734Z,1.50
2022-08-10T02:55:35.816Z,1.60
2022-08-10T02:58:13.877Z,1.40
2022-08-10T03:00:53.261Z,1.30
2022-08-10T03:03:25.524Z,1.50
2022-08-10T03:06:02.347Z,1.50
2022-08-10T03:08:41.065Z,1.60
2022-08-10T03:11:18.932Z,1.60
2022-08-10T03:14:10.973Z,1.70
2022-08-10T03:16:41.746Z,1.80
2022-08-10T03:20:34.807Z,1.70
2022-08-10T03:22:04.944Z,2.10
2022-08-10T03:24:35.876Z,1.60
2022-08-10T03:27:06.670Z,1.60
2022-08-10T03:30:28.194Z,1.80
2022-08-10T03:32:26.793Z,2.10
2022-08-10T03:34:57.294Z,1.90
2022-08-10T03:37:28.529Z,1.80
2022-08-10T03:39:58.066Z,1.70
2022-08-10T03:42:28.555Z,1.90
2022-08-10T03:45:02.307Z,1.90
2022-08-10T03:47:34.009Z,1.60
2022-08-10T03:50:27.813Z,1.90
2022-08-10T03:52:54.731Z,2.00
2022-08-10T03:56:29.461Z,2.40
2022-08-10T03:58:14.797Z,2.10
2022-08-10T04:00:50.726Z,2.00
2022-08-10T04:03:20.250Z,2.30
2022-08-10T04:05:49.460Z,2.20
2022-08-10T04:08:25.715Z,2.40
2022-08-10T04:10:55.410Z,2.90
2022-08-10T04:13:24.670Z,2.70
2022-08-10T04:16:00.983Z,2.60
2022-08-10T04:18:43.118Z,2.60
2022-08-10T04:21:16.109Z,2.30
2022-08-10T04:23:53.236Z,2.50
2022-08-10T04:26:23.061Z,2.60
2022-08-10T04:28:52.626Z,2.70
2022-08-10T04:31:27.290Z,2.80
2022-08-10T04:33:59.510Z,2.60
2022-08-10T04:36:40.584Z,3.00
2022-08-10T04:39:10.833Z,2.80
2022-08-10T04:41:46.057Z,2.30
2022-08-10T04:44:16.794Z,2.30
2022-08-10T04:46:58.361Z,2.10
2022-08-10T04:49:55.276Z,2.40
2022-08-10T04:52:18.894Z,2.10
2022-08-10T04:54:48.489Z,2.20
2022-08-10T04:57:20.313Z,2.40
2022-08-10T04:59:58.066Z,2.30
2022-08-10T05:02:32.305Z,2.30
2022-08-10T05:05:02.376Z,2.50
2022-08-10T05:07:33.124Z,2.60
2022-08-10T05:10:23.505Z,2.20
2022-08-10T05:12:54.021Z,2.70
2022-08-10T05:15:28.347Z,2.80
2022-08-10T05:18:08.401Z,2.50
2022-08-10T05:20:41.011Z,2.70
2022-08-10T05:23:10.686Z,3.20
2022-08-10T05:25:40.191Z,3.00
2022-08-10T05:28:10.429Z,2.80
2022-08-10T05:30:39.970Z,2.70
2022-08-10T05:33:09.646Z,2.90
2022-08-10T05:35:56.602Z,2.40
2022-08-10T05:38:28.558Z,3.00
2022-08-10T05:40:58.601Z,3.00
2022-08-10T05:43:28.335Z,3.10
2022-08-10T05:46:19.451Z,3.00
2022-08-10T05:48:59.549Z,3.00
2022-08-10T05:51:30.911Z,3.10
2022-08-10T05:54:06.175Z,3.00
2022-08-10T05:56:55.903Z,3.60
2022-08-10T06:00:10.673Z,2.80
2022-08-10T06:02:33.116Z,2.90
2022-08-10T06:05:09.297Z,3.00
2022-08-10T06:07:46.996Z,2.80
2022-08-10T06:13:29.987Z,2.50
2022-08-10T06:16:08.993Z,3.30
2022-08-10T06:18:38.273Z,3.00
2022-08-10T06:21:09.058Z,3.00
2022-08-10T06:23:39.738Z,2.60
2022-08-10T06:26:14.718Z,3.20
2022-08-10T06:29:03.288Z,3.50
2022-08-10T06:31:48.289Z,3.10
2022-08-10T06:34:24.601Z,3.40
2022-08-10T06:36:55.508Z,3.10
2022-08-10T06:39:34.900Z,3.00
2022-08-10T06:42:16.012Z,3.50
2022-08-10T06:44:54.623Z,3.40
2022-08-10T06:47:29.169Z,3.10
2022-08-10T06:50:08.535Z,2.80
2022-08-10T06:52:40.663Z,2.90
2022-08-10T06:55:16.933Z,3.20
2022-08-10T06:57:59.891Z,2.90
2022-08-10T07:00:37.213Z,2.60
2022-08-10T07:03:13.869Z,3.00
2022-08-10T07:08:23.038Z,2.60
2022-08-10T07:14:17.434Z,3.10
2022-08-10T07:16:42.737Z,2.60
2022-08-10T07:19:13.870Z,3.00
2022-08-10T07:21:47.859Z,3.30
2022-08-10T07:24:20.725Z,2.50
2022-08-10T07:26:54.710Z,2.70
2022-08-10T07:29:53.319Z,2.70
2022-08-10T07:32:22.459Z,2.90
2022-08-10T07:34:55.959Z,2.70
2022-08-10T07:37:29.150Z,2.80
2022-08-10T07:40:04.799Z,2.70
2022-08-10T07:42:36.460Z,2.70
2022-08-10T07:45:07.528Z,2.30
2022-08-10T07:47:52.643Z,2.20
2022-08-10T07:50:25.249Z,2.30
2022-08-10T07:52:58.217Z,2.60
2022-08-10T07:56:03.965Z,2.50
2022-08-10T07:58:19.566Z,2.50
2022-08-10T08:00:53.488Z,2.30
2022-08-10T08:03:25.010Z,2.70
2022-08-10T08:06:02.581Z,2.60
2022-08-10T08:08:38.207Z,2.50
2022-08-10T08:11:08.296Z,3.10
2022-08-10T08:13:39.581Z,3.20
2022-08-10T08:16:21.409Z,3.10
2022-08-10T08:19:23.616Z,3.40
2022-08-10T08:24:06.052Z,3.00
2022-08-10T08:24:38.124Z,3.40
2022-08-10T08:27:10.745Z,3.00
2022-08-10T08:29:44.981Z,2.70
2022-08-10T08:32:16.412Z,2.90
2022-08-10T08:34:47.067Z,2.90
2022-08-10T08:38:33.610Z,3.50
2022-08-10T08:40:16.080Z,3.60
2022-08-10T08:43:22.250Z,3.40
2022-08-10T08:46:38.239Z,3.40
2022-08-10T08:49:41.482Z,3.30
2022-08-10T08:52:48.810Z,3.80
2022-08-10T08:55:50.236Z,3.20
2022-08-10T08:58:58.611Z,3.40
2022-08-10T09:02:00.568Z,3.50
2022-08-10T09:05:17.278Z,3.60
2022-08-10T09:08:05.626Z,3.70
2022-08-10T09:10:50.410Z,3.90
2022-08-10T09:13:28.857Z,3.10
2022-08-10T09:16:14.530Z,3.80
2022-08-10T09:18:51.784Z,3.80
2022-08-10T09:21:30.879Z,4.10
2022-08-10T09:24:06.339Z,3.80
2022-08-10T09:26:47.534Z,3.70
2022-08-10T09:29:24.421Z,3.60
2022-08-10T09:36:15.447Z,3.90
2022-08-10T09:36:19.797Z,3.50
2022-08-10T09:38:06.362Z,2.80
2022-08-10T09:41:00.805Z,2.60
2022-08-10T09:43:49.483Z,3.00
2022-08-10T09:46:40.081Z,2.20
2022-08-10T09:49:22.372Z,2.60
2022-08-10T09:52:09.387Z,2.60
2022-08-10T09:54:56.212Z,2.60
2022-08-10T09:57:43.378Z,2.70
2022-08-10T10:00:19.577Z,2.70
2022-08-10T10:03:03.596Z,2.40
2022-08-10T10:05:53.359Z,2.20
2022-08-10T10:08:32.987Z,2.40
2022-08-10T10:11:32.385Z,2.20
2022-08-10T10:14:17.822Z,2.40
2022-08-10T10:17:03.124Z,2.20
2022-08-10T10:19:50.519Z,2.30
2022-08-10T10:22:34.969Z,2.30
2022-08-10T10:25:24.950Z,2.20
2022-08-10T10:31:45.643Z,2.30
2022-08-10T10:34:25.702Z,2.30
2022-08-10T10:36:56.944Z,2.80
2022-08-10T10:39:27.492Z,2.70
2022-08-10T10:42:14.600Z,2.90
2022-08-10T10:45:06.304Z,2.70
2022-08-10T10:47:55.768Z,2.60
2022-08-10T10:50:35.174Z,2.50
2022-08-10T10:53:13.794Z,2.60
2022-08-10T10:56:14.598Z,2.60
2022-08-10T10:58:48.874Z,2.40
2022-08-10T11:01:36.462Z,5.90
2022-08-10T11:04:23.094Z,2.80
2022-08-10T11:07:03.494Z,2.60
2022-08-10T11:10:04.917Z,2.70
2022-08-10T11:12:43.552Z,2.60
2022-08-10T11:15:22.221Z,2.40
2022-08-10T11:18:04.593Z,2.30
2022-08-10T11:20:43.986Z,2.50
2022-08-10T11:23:23.470Z,2.80
2022-08-10T11:26:05.968Z,2.80
2022-08-10T11:28:45.302Z,2.80
2022-08-10T11:31:27.595Z,2.80
2022-08-10T11:34:47.136Z,2.80
2022-08-10T11:37:09.668Z,2.70
2022-08-10T11:39:48.595Z,2.90
2022-08-10T11:42:35.666Z,3.10
2022-08-10T11:45:13.663Z,2.80
2022-08-10T11:47:51.918Z,2.80
2022-08-10T11:50:25.711Z,2.90
2022-08-10T11:53:10.308Z,3.40
2022-08-10T11:55:40.265Z,3.20
2022-08-10T11:58:34.093Z,3.50
2022-08-10T12:01:09.173Z,3.00
2022-08-10T12:03:41.710Z,3.60
2022-08-10T12:06:53.669Z,3.20
2022-08-10T12:10:11.000Z,3.20
2022-08-10T12:12:11.099Z,3.30
2022-08-10T12:14:48.504Z,3.50
2022-08-10T12:17:24.228Z,3.10
2022-08-10T12:20:04.133Z,3.20
2022-08-10T12:22:55.102Z,3.40
2022-08-10T12:25:56.523Z,3.50
2022-08-10T12:28:49.277Z,3.60
2022-08-10T12:31:27.193Z,3.80
2022-08-10T12:34:14.605Z,3.70
2022-08-10T12:36:48.196Z,3.90
2022-08-10T12:39:25.358Z,3.90
2022-08-10T12:42:06.108Z,4.00
2022-08-10T12:44:55.014Z,3.60
2022-08-10T12:47:41.238Z,4.10
2022-08-10T12:50:30.877Z,4.60
2022-08-10T12:53:08.047Z,4.90
2022-08-10T12:55:40.536Z,4.50
2022-08-10T12:58:59.691Z,4.20
2022-08-10T13:01:16.922Z,4.30
2022-08-10T13:04:20.978Z,4.90
2022-08-10T13:06:45.749Z,5.70
2022-08-10T13:09:21.509Z,5.50
2022-08-10T13:12:36.257Z,5.10
2022-08-10T13:14:50.906Z,5.30
2022-08-10T13:17:38.958Z,5.40
2022-08-10T13:20:18.383Z,5.20
2022-08-10T13:22:52.497Z,4.80
2022-08-10T13:25:29.323Z,5.70
2022-08-10T13:28:36.087Z,5.50
2022-08-10T13:30:55.945Z,5.10
2022-08-10T13:34:40.999Z,5.00
2022-08-10T13:36:31.015Z,4.90
2022-08-10T13:39:01.952Z,4.60
2022-08-10T13:41:35.601Z,4.70
2022-08-10T13:44:06.968Z,4.70
2022-08-10T13:46:39.882Z,5.30
2022-08-10T13:49:10.653Z,5.20
2022-08-10T13:51:54.552Z,5.40
2022-08-10T13:54:36.154Z,4.90
2022-08-10T13:57:06.615Z,5.50
2022-08-10T14:00:34.193Z,6.00
2022-08-10T14:02:31.381Z,5.30
2022-08-10T14:05:01.821Z,5.40
2022-08-10T14:07:33.999Z,5.40
2022-08-10T14:10:07.394Z,5.90
2022-08-10T14:12:41.694Z,6.10
2022-08-10T14:15:14.980Z,5.60
2022-08-10T14:17:48.294Z,4.30
2022-08-10T14:20:21.769Z,3.80
2022-08-10T14:22:51.281Z,3.90
2022-08-10T14:25:20.702Z,3.90
2022-08-10T14:28:03.516Z,3.10
2022-08-10T14:30:35.130Z,2.20
2022-08-10T14:33:07.837Z,1.90
2022-08-10T14:36:20.315Z,1.70
2022-08-10T14:38:35.622Z,1.90
2022-08-10T14:41:14.463Z,1.70
2022-08-10T14:44:08.286Z,1.80
2022-08-10T14:46:45.296Z,2.10
2022-08-10T14:49:26.676Z,1.80
2022-08-10T14:52:02.688Z,1.90
2022-08-10T14:54:33.910Z,2.30
2022-08-10T14:57:11.230Z,2.00
2022-08-10T15:00:22.819Z,1.60
2022-08-10T15:02:39.038Z,1.70
2022-08-10T15:05:22.051Z,1.90
2022-08-10T15:07:59.383Z,1.90
2022-08-10T15:10:29.469Z,1.80
2022-08-10T15:12:59.576Z,1.90
2022-08-10T15:15:31.251Z,1.80
2022-08-10T15:18:26.412Z,1.70
2022-08-10T15:20:58.238Z,2.00
2022-08-10T15:23:32.286Z,2.00
2022-08-10T15:26:10.759Z,1.80
2022-08-10T15:29:23.655Z,1.90
2022-08-10T15:31:55.984Z,1.80
2022-08-10T15:34:44.319Z,1.70
2022-08-10T15:37:40.795Z,1.70
2022-08-10T15:40:25.131Z,1.50
2022-08-10T15:43:05.784Z,1.60
2022-08-10T15:46:14.591Z,1.70
2022-08-10T15:48:53.026Z,1.80
2022-08-10T15:51:33.786Z,2.30
2022-08-10T15:54:33.541Z,1.70
2022-08-10T15:57:08.146Z,1.50
2022-08-10T15:59:44.925Z,1.40
2022-08-10T16:02:18.740Z,1.40
2022-08-10T16:04:52.373Z,1.50
2022-08-10T16:07:46.271Z,1.60
2022-08-10T16:10:28.453Z,1.80
2022-08-10T16:13:01.738Z,1.70
2022-08-10T16:15:33.377Z,1.30
2022-08-10T16:18:08.452Z,1.50
2022-08-10T16:20:52.353Z,1.40
2022-08-10T16:23:28.991Z,1.40
2022-08-10T16:26:05.161Z,1.90
2022-08-10T16:28:48.315Z,1.30
2022-08-10T16:31:22.105Z,1.40
2022-08-10T16:33:55.301Z,1.30
2022-08-10T16:36:33.727Z,1.30
2022-08-10T16:39:04.568Z,1.20
2022-08-10T16:42:03.201Z,1.20
2022-08-10T16:44:31.488Z,1.20
2022-08-10T16:47:02.187Z,1.20
2022-08-10T16:49:37.141Z,1.40
2022-08-10T16:52:09.310Z,1.60
2022-08-10T16:54:41.604Z,1.10
2022-08-10T16:57:14.024Z,1.30
2022-08-10T16:59:45.165Z,1.50
2022-08-10T17:02:17.506Z,1.20
2022-08-10T17:04:50.040Z,1.40
2022-08-10T17:07:30.441Z,1.30
2022-08-10T17:10:07.450Z,1.20
2022-08-10T17:12:39.567Z,1.00
2022-08-10T17:15:12.812Z,1.50
2022-08-10T17:17:45.184Z,1.70
2022-08-10T17:20:30.197Z,1.60
2022-08-10T17:23:06.094Z,1.50
2022-08-10T17:25:45.695Z,1.50
2022-08-10T17:28:32.866Z,1.50
2022-08-10T17:31:42.218Z,1.30
2022-08-10T17:34:16.785Z,1.40
2022-08-10T17:36:59.993Z,1.20
2022-08-10T17:39:38.646Z,1.30
2022-08-10T17:42:12.327Z,1.20
2022-08-10T17:44:43.146Z,1.40
2022-08-10T17:47:13.207Z,1.70
2022-08-10T17:49:43.895Z,1.50
2022-08-10T17:52:21.082Z,1.40
2022-08-10T17:54:56.404Z,1.60
2022-08-10T17:57:27.683Z,1.10
2022-08-10T18:00:03.452Z,1.30
2022-08-10T18:02:36.737Z,1.50
2022-08-10T18:05:11.853Z,1.30
2022-08-10T18:07:57.780Z,1.40
2022-08-10T18:10:28.346Z,1.20
2022-08-10T18:12:59.487Z,1.40
2022-08-10T18:15:37.745Z,1.90
2022-08-10T18:18:16.394Z,2.50
2022-08-10T18:20:51.286Z,2.00
2022-08-10T18:23:27.455Z,1.40
2022-08-10T18:26:02.800Z,1.40
2022-08-10T18:28:36.470Z,1.40
2022-08-10T18:31:07.778Z,1.20
2022-08-10T18:33:47.149Z,1.40
2022-08-10T18:36:19.276Z,1.30
2022-08-10T18:38:53.081Z,1.40
2022-08-10T18:41:30.722Z,1.40
2022-08-10T18:44:12.123Z,1.10
2022-08-10T18:46:47.604Z,1.20
2022-08-10T18:49:26.547Z,1.20
2022-08-10T18:52:01.923Z,1.60
2022-08-10T18:54:44.505Z,1.50
2022-08-10T18:57:32.757Z,1.20
2022-08-10T19:00:12.480Z,1.30
2022-08-10T19:03:10.770Z,1.20
2022-08-10T19:06:16.481Z,1.10
2022-08-10T19:09:46.258Z,1.40
2022-08-10T19:12:29.977Z,1.10
2022-08-10T19:15:15.828Z,1.50
2022-08-10T19:18:05.593Z,1.30
2022-08-10T19:20:48.604Z,1.10
2022-08-10T19:23:37.847Z,1.30
2022-08-10T19:26:43.683Z,1.20
2022-08-10T19:30:09.187Z,1.10
2022-08-10T19:32:28.622Z,1.20
2022-08-10T19:35:07.501Z,1.30
2022-08-10T19:37:45.025Z,1.10
2022-08-10T19:40:44.070Z,1.10
2022-08-10T19:43:59.612Z,1.10
2022-08-10T19:46:19.510Z,1.20
2022-08-10T19:48:58.052Z,1.10
2022-08-10T19:51:34.127Z,1.20
2022-08-10T19:54:14.564Z,1.10
2022-08-10T19:57:01.054Z,1.40
2022-08-10T20:00:16.910Z,1.40
2022-08-10T20:02:32.451Z,1.10
2022-08-10T20:05:10.049Z,1.20
2022-08-10T20:07:50.007Z,1.20
2022-08-10T20:10:28.886Z,1.20
2022-08-10T20:13:07.758Z,1.20
2022-08-10T20:15:42.809Z,1.10
2022-08-10T20:18:21.671Z,1.10
2022-08-10T20:20:59.080Z,1.10
2022-08-10T20:23:33.810Z,1.10
2022-08-10T20:26:13.085Z,1.20
2022-08-10T20:28:47.176Z,1.30
2022-08-10T20:31:22.786Z,1.50
2022-08-10T20:34:01.371Z,1.20
2022-08-10T20:36:34.045Z,1.60
2022-08-10T20:39:13.732Z,1.20
2022-08-10T20:41:57.376Z,1.10
2022-08-10T20:44:43.977Z,1.20
2022-08-10T20:47:20.976Z,1.40
2022-08-10T20:50:01.857Z,1.20
2022-08-10T20:52:37.478Z,1.40
2022-08-10T20:55:11.766Z,1.40
2022-08-10T20:58:01.054Z,1.10
2022-08-10T21:00:47.033Z,1.20
2022-08-10T21:03:42.833Z,1.30
2022-08-10T21:06:45.875Z,1.30
2022-08-10T21:09:38.749Z,1.20
2022-08-10T21:12:51.040Z,1.50
2022-08-10T21:15:41.700Z,1.30
2022-08-10T21:18:30.781Z,1.10
2022-08-10T21:21:09.464Z,1.20
2022-08-10T21:23:51.872Z,1.30
2022-08-10T21:26:46.455Z,1.10
2022-08-10T21:29:37.857Z,1.30
2022-08-10T21:32:23.896Z,1.20
2022-08-10T21:35:08.376Z,1.10
2022-08-10T21:37:56.622Z,1.20
2022-08-10T21:41:18.747Z,1.10
2022-08-10T21:44:19.321Z,1.30
2022-08-10T21:47:27.193Z,1.10
2022-08-10T21:50:27.954Z,1.10
2022-08-10T21:53:43.538Z,1.20
2022-08-10T21:56:41.258Z,1.20
2022-08-10T21:59:42.014Z,1.10
2022-08-10T22:02:34.336Z,1.20
2022-08-10T22:05:23.420Z,1.30
2022-08-10T22:08:29.339Z,1.00
2022-08-10T22:11:20.146Z,1.20
2022-08-10T22:14:10.553Z,1.30
2022-08-10T22:17:59.843Z,1.20
2022-08-10T22:20:25.119Z,1.10
2022-08-10T22:23:30.713Z,1.10
2022-08-10T22:26:29.486Z,1.20
2022-08-10T22:29:24.847Z,1.30
2022-08-10T22:32:21.051Z,1.30
2022-08-10T22:35:34.962Z,1.10
2022-08-10T22:38:51.458Z,1.20
2022-08-10T22:41:57.205Z,1.40
2022-08-10T22:44:52.407Z,1.10
2022-08-10T22:47:42.357Z,1.40
2022-08-10T22:50:17.543Z,1.40
2022-08-10T22:52:57.293Z,1.40
2022-08-10T22:56:04.101Z,1.30
2022-08-10T22:58:40.287Z,1.50
2022-08-10T23:01:38.691Z,1.40
2022-08-10T23:04:16.748Z,1.60
2022-08-10T23:06:59.168Z,1.40
2022-08-10T23:09:29.293Z,1.40
2022-08-10T23:12:05.442Z,1.40
2022-08-10T23:14:38.349Z,1.50
2022-08-10T23:18:01.817Z,1.80
2022-08-10T23:20:27.034Z,1.50
2022-08-10T23:23:09.506Z,1.60
2022-08-10T23:26:25.846Z,1.50
2022-08-10T23:29:24.656Z,1.70
2022-08-10T23:36:29.523Z,1.50
2022-08-10T23:38:32.806Z,1.60
2022-08-10T23:41:09.508Z,1.80
2022-08-10T23:46:38.952Z,1.90
2022-08-10T23:49:11.043Z,1.90
2022-08-10T23:51:56.503Z,2.00
2022-08-10T23:54:28.257Z,1.80
2022-08-10T23:57:01.798Z,2.00
2022-08-10T23:59:35.936Z,2.10
